CheckWX is a tool to help pilots better visualize weather data.  It is not intended as a substitute for an official pre-flight weather briefing.

19:05:10 UTC

CYYG METAR
Charlottetown Airport
Charlottetown, Prince Edward Island, Canada
Current

1 hour ago

CYYG 191800Z 30021G29KT 15SM FEW030 M11/M19 A3004 RMK SC1 SLP178
Observed
Feb-19 @ 18:00 UTC
Wind
  • 300° at 21 KTS
  • Gusting to 29 KTS
Visibility
15 SM
Flight Rules
VFR
Cloud Levels
  • Few at 3,000' AGL
Temperature
-11°C / 12°F
Dewpoint
-19°C / -2°F
Humidity
52%
Altimeter
30.04" Hg
Pressure
1017.8 hPa
Previous

2 hours ago

CYYG 191700Z 31016G24KT 15SM SCT028 M11/M18 A3005 RMK SC4 SLP182
Observed
Feb-19 @ 17:00 UTC
Wind
  • 310° at 16 KTS
  • Gusting to 24 KTS
Visibility
15 SM
Flight Rules
VFR
Cloud Levels
  • Scattered at 2,800' AGL
Temperature
-11°C / 12°F
Dewpoint
-18°C / -0°F
Humidity
57%
Altimeter
30.05" Hg
Pressure
1018.2 hPa
Previous

3 hours ago

CYYG 191600Z 31014G22KT 15SM BKN027 M12/M18 A3005 RMK SC5 SLP182
Observed
Feb-19 @ 16:00 UTC
Wind
  • 310° at 14 KTS
  • Gusting to 22 KTS
Visibility
15 SM
Flight Rules
MVFR
Cloud Levels
  • Broken at 2,700' AGL
Temperature
-12°C / 10°F
Dewpoint
-18°C / -0°F
Humidity
61%
Altimeter
30.05" Hg
Pressure
1018.2 hPa